createdAt,value
2019-05-25T00:00:13.861Z,100695.17
2019-05-25T00:02:51.466Z,100699.18
2019-05-25T00:05:28.905Z,100700.90
2019-05-25T00:08:07.077Z,100698.97
2019-05-25T00:10:44.489Z,100698.45
2019-05-25T00:13:22.410Z,100712.84
2019-05-25T00:15:59.494Z,100709.95
2019-05-25T00:18:38.067Z,100702.10
2019-05-25T00:21:15.581Z,100702.81
2019-05-25T00:23:53.240Z,100699.97
2019-05-25T00:26:31.901Z,100707.23
2019-05-25T00:29:09.949Z,100704.26
2019-05-25T00:31:47.329Z,100710.18
2019-05-25T00:34:24.973Z,100709.85
2019-05-25T00:37:02.639Z,100709.30
2019-05-25T00:39:40.872Z,100706.56
2019-05-25T00:42:18.537Z,100708.56
2019-05-25T00:44:55.916Z,100702.94
2019-05-25T00:47:33.525Z,100707.87
2019-05-25T00:50:12.325Z,100719.94
2019-05-25T00:52:49.715Z,100712.97
2019-05-25T00:55:27.559Z,100706.33
2019-05-25T00:58:05.700Z,100705.52
2019-05-25T01:00:43.470Z,100703.30
2019-05-25T01:03:20.911Z,100711.91
2019-05-25T01:05:58.624Z,100712.61
2019-05-25T01:08:36.588Z,100710.83
2019-05-25T01:11:14.494Z,100710.84
2019-05-25T01:13:51.681Z,100705.78
2019-05-25T01:16:29.330Z,100700.75
2019-05-25T01:19:08.293Z,100709.48
2019-05-25T01:21:46.428Z,100709.42
2019-05-25T01:24:23.869Z,100710.03
2019-05-25T01:27:02.078Z,100711.58
2019-05-25T01:29:40.843Z,100708.95
2019-05-25T01:32:19.396Z,100716.52
2019-05-25T01:34:57.016Z,100713.27
2019-05-25T01:37:34.624Z,100722.72
2019-05-25T01:40:12.346Z,100719.06
2019-05-25T01:42:51.808Z,100722.97
2019-05-25T01:45:29.307Z,100726.20
2019-05-25T01:48:07.040Z,100727.12
2019-05-25T01:50:44.094Z,100731.89
2019-05-25T01:53:23.243Z,100728.91
2019-05-25T01:56:00.608Z,100737.26
2019-05-25T01:58:38.636Z,100727.73
2019-05-25T02:01:18.216Z,100738.97
2019-05-25T02:03:56.388Z,100742.27
2019-05-25T02:06:33.772Z,100737.69
2019-05-25T02:09:12.374Z,100739.85
2019-05-25T02:11:50.303Z,100728.03
2019-05-25T02:14:28.673Z,100725.23
2019-05-25T02:17:06.132Z,100721.05
2019-05-25T02:19:44.277Z,100717.77
2019-05-25T02:22:21.479Z,100724.73
2019-05-25T02:25:14.473Z,100729.25
2019-05-25T02:27:39.475Z,100726.78
2019-05-25T02:30:17.370Z,100728.64
2019-05-25T02:32:56.220Z,100727.55
2019-05-25T02:35:34.074Z,100726.61
2019-05-25T02:38:11.331Z,100718.63
2019-05-25T02:40:48.988Z,100717.61
2019-05-25T02:43:27.080Z,100720.59
2019-05-25T02:46:04.945Z,100719.83
2019-05-25T02:48:42.489Z,100715.56
2019-05-25T02:51:20.104Z,100720.67
2019-05-25T02:53:58.457Z,100724.08
2019-05-25T02:56:36.920Z,100718.63
2019-05-25T02:59:14.141Z,100712.73
2019-05-25T03:01:51.733Z,100702.20
2019-05-25T03:04:29.673Z,100697.51
2019-05-25T03:07:07.917Z,100696.62
2019-05-25T03:09:45.354Z,100698.39
2019-05-25T03:12:22.829Z,100703.47
2019-05-25T03:14:59.769Z,100702.16
2019-05-25T03:17:37.911Z,100701.22
2019-05-25T03:20:15.669Z,100695.87
2019-05-25T03:22:53.855Z,100690.72
2019-05-25T03:25:31.356Z,100689.64
2019-05-25T03:28:09.471Z,100682.13
2019-05-25T03:30:47.018Z,100685.08
2019-05-25T03:33:24.565Z,100677.19
2019-05-25T03:36:02.557Z,100675.00
2019-05-25T03:38:41.004Z,100677.80
2019-05-25T03:41:18.176Z,100674.70
2019-05-25T03:43:56.188Z,100678.43
2019-05-25T03:46:33.293Z,100673.32
2019-05-25T03:49:11.459Z,100663.91
2019-05-25T03:51:48.623Z,100663.45
2019-05-25T03:54:26.164Z,100661.46
2019-05-25T03:57:03.410Z,100657.31
2019-05-25T03:59:41.748Z,100648.17
2019-05-25T04:02:18.795Z,100652.69
2019-05-25T04:04:56.162Z,100656.64
2019-05-25T04:07:34.751Z,100652.83
2019-05-25T04:10:12.869Z,100645.28
2019-05-25T04:12:50.331Z,100646.98
2019-05-25T04:15:28.117Z,100640.80
2019-05-25T04:18:05.660Z,100650.80
2019-05-25T04:20:43.316Z,100645.78
2019-05-25T04:23:20.790Z,100647.42
2019-05-25T04:25:58.775Z,100648.29
2019-05-25T04:28:37.391Z,100641.33
2019-05-25T04:31:16.426Z,100640.00
2019-05-25T04:33:53.696Z,100628.03
2019-05-25T04:36:30.889Z,100625.78
2019-05-25T04:39:10.531Z,100632.85
2019-05-25T04:41:48.558Z,100622.70
2019-05-25T04:44:25.990Z,100612.64
2019-05-25T04:47:03.283Z,100618.15
2019-05-25T04:49:40.845Z,100616.21
2019-05-25T04:52:18.972Z,100610.66
2019-05-25T04:54:56.266Z,100608.30
2019-05-25T04:57:33.651Z,100612.95
2019-05-25T05:00:11.099Z,100608.02
2019-05-25T05:02:49.342Z,100606.25
2019-05-25T05:05:27.270Z,100603.25
2019-05-25T05:08:04.900Z,100593.21
2019-05-25T05:10:43.202Z,100592.83
2019-05-25T05:13:21.121Z,100589.30
2019-05-25T05:15:58.144Z,100585.98
2019-05-25T05:18:36.022Z,100572.14
2019-05-25T05:21:18.879Z,100573.50
2019-05-25T05:23:57.197Z,100566.37
2019-05-25T05:26:34.394Z,100567.80
2019-05-25T05:29:11.853Z,100572.69
2019-05-25T05:31:48.927Z,100560.78
2019-05-25T05:34:27.226Z,100560.78
2019-05-25T05:37:05.482Z,100557.98
2019-05-25T05:39:45.321Z,100559.10
2019-05-25T05:42:24.761Z,100559.98
2019-05-25T05:45:04.629Z,100563.02
2019-05-25T05:47:42.651Z,100549.92
2019-05-25T05:50:20.956Z,100547.00
2019-05-25T05:52:58.564Z,100530.99
2019-05-25T05:55:37.622Z,100530.00
2019-05-25T05:58:15.208Z,100520.88
2019-05-25T06:00:54.580Z,100511.80
2019-05-25T06:03:31.803Z,100519.23
2019-05-25T06:06:10.025Z,100514.98
2019-05-25T06:08:47.860Z,100515.14
2019-05-25T06:11:25.395Z,100511.82
2019-05-25T06:14:03.821Z,100511.06
2019-05-25T06:16:41.970Z,100470.02
2019-05-25T06:19:19.646Z,100498.50
2019-05-25T06:21:57.247Z,100494.86
2019-05-25T06:24:34.604Z,100495.00
2019-05-25T06:27:26.445Z,100484.47
2019-05-25T06:29:51.374Z,100482.41
2019-05-25T06:32:29.186Z,100479.88
2019-05-25T06:35:06.930Z,100477.54
2019-05-25T06:37:44.788Z,100476.45
2019-05-25T06:40:23.458Z,100476.42
2019-05-25T06:43:01.099Z,100466.26
2019-05-25T06:45:40.564Z,100471.60
2019-05-25T06:48:19.018Z,100463.69
2019-05-25T06:50:56.231Z,100455.85
2019-05-25T06:53:34.046Z,100445.35
2019-05-25T06:56:11.525Z,100437.95
2019-05-25T06:58:50.862Z,100444.50
2019-05-25T07:01:28.467Z,100438.83
2019-05-25T07:04:07.408Z,100430.18
2019-05-25T07:06:45.501Z,100422.33
2019-05-25T07:09:24.260Z,100420.70
2019-05-25T07:12:01.887Z,100416.80
2019-05-25T07:14:39.218Z,100419.15
2019-05-25T07:17:18.190Z,100415.31
2019-05-25T07:19:56.093Z,100404.98
2019-05-25T07:22:34.114Z,100405.48
2019-05-25T07:25:11.661Z,100403.25
2019-05-25T07:27:58.890Z,100399.92
2019-05-25T07:30:28.927Z,100390.30
2019-05-25T07:33:06.665Z,100379.80
2019-05-25T07:35:44.548Z,100380.59
2019-05-25T07:38:23.099Z,100373.06
2019-05-25T07:41:01.935Z,100368.63
2019-05-25T07:43:39.245Z,100363.50
2019-05-25T07:46:17.449Z,100350.60
2019-05-25T07:48:55.849Z,100345.28
2019-05-25T07:51:34.484Z,100338.33
2019-05-25T07:54:13.051Z,100334.64
2019-05-25T07:56:51.036Z,100326.57
2019-05-25T07:59:28.666Z,100314.78
2019-05-25T08:02:06.602Z,100318.33
2019-05-25T08:04:43.918Z,100325.79
2019-05-25T08:07:21.924Z,100322.77
2019-05-25T08:09:59.639Z,100316.56
2019-05-25T08:12:37.985Z,100314.80
2019-05-25T08:15:15.482Z,100309.19
2019-05-25T08:17:53.171Z,100315.63
2019-05-25T08:20:31.689Z,100307.63
2019-05-25T08:23:10.139Z,100303.70
2019-05-25T08:25:47.579Z,100306.36
2019-05-25T08:28:32.842Z,100301.02
2019-05-25T08:31:04.331Z,100299.22
2019-05-25T08:33:42.319Z,100300.83
2019-05-25T08:36:19.357Z,100286.93
2019-05-25T08:38:57.125Z,100291.10
2019-05-25T08:41:34.742Z,100292.31
2019-05-25T08:44:12.056Z,100282.91
2019-05-25T08:46:49.726Z,100287.88
2019-05-25T08:49:27.203Z,100288.27
2019-05-25T08:52:05.197Z,100290.26
2019-05-25T08:54:42.701Z,100290.47
2019-05-25T08:57:20.199Z,100295.69
2019-05-25T08:59:57.962Z,100297.71
2019-05-25T09:02:35.362Z,100290.27
2019-05-25T09:05:13.277Z,100281.86
2019-05-25T09:07:50.192Z,100279.27
2019-05-25T09:10:27.484Z,100272.28
2019-05-25T09:13:04.789Z,100271.37
2019-05-25T09:15:42.817Z,100276.53
2019-05-25T09:18:20.110Z,100283.03
2019-05-25T09:20:57.514Z,100286.48
2019-05-25T09:23:35.428Z,100271.73
2019-05-25T09:26:13.702Z,100273.48
2019-05-25T09:29:03.540Z,100269.66
2019-05-25T09:31:30.145Z,100258.45
2019-05-25T09:34:07.471Z,100274.19
2019-05-25T09:36:45.260Z,100269.95
2019-05-25T09:39:22.967Z,100273.34
2019-05-25T09:42:00.587Z,100271.20
2019-05-25T09:44:37.788Z,100280.58
2019-05-25T09:47:16.804Z,100271.45
2019-05-25T09:49:54.052Z,100277.19
2019-05-25T09:52:32.356Z,100282.05
2019-05-25T09:55:12.019Z,100284.40
2019-05-25T09:57:49.613Z,100285.21
2019-05-25T10:00:27.498Z,100280.73
2019-05-25T10:03:04.917Z,100275.06
2019-05-25T10:05:42.007Z,100278.02
2019-05-25T10:08:20.283Z,100279.45
2019-05-25T10:10:57.636Z,100280.38
2019-05-25T10:13:35.169Z,100285.67
2019-05-25T10:16:12.139Z,100286.34
2019-05-25T10:18:50.472Z,100281.81
2019-05-25T10:21:28.239Z,100299.20
2019-05-25T10:24:05.733Z,100302.20
2019-05-25T10:26:44.331Z,100299.62
2019-05-25T10:29:36.079Z,100291.44
2019-05-25T10:32:01.726Z,100299.81
2019-05-25T10:34:39.221Z,100308.55
2019-05-25T10:37:16.362Z,100310.27
2019-05-25T10:39:55.200Z,100326.16
2019-05-25T10:42:32.592Z,100327.30
2019-05-25T10:45:10.368Z,100334.31
2019-05-25T10:47:48.525Z,100335.49
2019-05-25T10:50:27.564Z,100346.23
2019-05-25T10:53:05.145Z,100361.02
2019-05-25T10:55:42.547Z,100360.93
2019-05-25T10:58:21.908Z,100354.70
2019-05-25T11:01:01.013Z,100353.80
2019-05-25T11:03:38.391Z,100346.50
2019-05-25T11:06:15.869Z,100345.18
2019-05-25T11:08:53.130Z,100353.20
2019-05-25T11:11:31.710Z,100365.44
2019-05-25T11:14:09.016Z,100373.67
2019-05-25T11:16:46.442Z,100363.18
2019-05-25T11:19:25.129Z,100359.52
2019-05-25T11:22:03.135Z,100347.76
2019-05-25T11:24:40.670Z,100341.44
2019-05-25T11:27:18.303Z,100332.66
2019-05-25T11:30:08.491Z,100340.38
2019-05-25T11:32:35.938Z,100348.64
2019-05-25T11:35:13.569Z,100361.45
2019-05-25T11:37:50.832Z,100365.35
2019-05-25T11:40:28.234Z,100361.69
2019-05-25T11:43:06.490Z,100363.14
2019-05-25T11:45:45.455Z,100371.30
2019-05-25T11:48:24.112Z,100386.30
2019-05-25T11:51:00.677Z,100387.16
2019-05-25T11:53:40.369Z,100394.36
2019-05-25T11:56:18.057Z,100394.84
2019-05-25T11:58:55.064Z,100385.72
2019-05-25T12:01:33.792Z,100388.27
2019-05-25T12:04:12.345Z,100393.09
2019-05-25T12:06:49.554Z,100386.96
2019-05-25T12:09:27.089Z,100392.38
2019-05-25T12:12:04.480Z,100398.95
2019-05-25T12:14:42.488Z,100396.47
2019-05-25T12:17:20.142Z,100411.39
2019-05-25T12:19:58.520Z,100420.06
2019-05-25T12:22:36.378Z,100429.55
2019-05-25T12:25:14.352Z,100424.19
2019-05-25T12:27:51.632Z,100426.64
2019-05-25T12:30:40.273Z,100427.64
2019-05-25T12:33:09.449Z,100447.01
2019-05-25T12:35:47.411Z,100451.50
2019-05-25T12:38:25.431Z,100453.57
2019-05-25T12:41:03.575Z,100455.03
2019-05-25T12:43:41.302Z,100462.10
2019-05-25T12:46:20.032Z,100466.63
2019-05-25T12:48:57.755Z,100472.97
2019-05-25T12:51:35.458Z,100477.37
2019-05-25T12:54:13.137Z,100481.51
2019-05-25T12:56:51.027Z,100489.04
2019-05-25T12:59:28.462Z,100488.22
2019-05-25T13:02:06.292Z,100492.20
2019-05-25T13:04:44.943Z,100493.69
2019-05-25T13:07:23.439Z,100497.80
2019-05-25T13:10:01.115Z,100511.55
2019-05-25T13:12:38.536Z,100513.91
2019-05-25T13:15:15.746Z,100530.38
2019-05-25T13:17:53.327Z,100538.01
2019-05-25T13:20:30.521Z,100539.33
2019-05-25T13:23:08.375Z,100544.69
2019-05-25T13:25:45.876Z,100553.91
2019-05-25T13:28:24.354Z,100552.90
2019-05-25T13:31:11.250Z,100544.76
2019-05-25T13:33:42.024Z,100543.80
2019-05-25T13:36:21.097Z,100541.72
2019-05-25T13:38:59.649Z,100538.91
2019-05-25T13:41:37.204Z,100542.86
2019-05-25T13:44:14.902Z,100541.17
2019-05-25T13:46:52.513Z,100549.40
2019-05-25T13:49:31.657Z,100539.27
2019-05-25T13:52:09.132Z,100531.66
2019-05-25T13:54:46.614Z,100534.58
2019-05-25T13:57:23.949Z,100536.56
2019-05-25T14:00:02.081Z,100536.81
2019-05-25T14:02:41.014Z,100548.63
2019-05-25T14:05:20.881Z,100553.23
2019-05-25T14:07:59.997Z,100561.32
2019-05-25T14:10:38.112Z,100565.53
2019-05-25T14:13:15.507Z,100573.64
2019-05-25T14:16:06.118Z,100560.91
2019-05-25T14:18:32.632Z,100575.47
2019-05-25T14:21:11.535Z,100583.64
2019-05-25T14:23:48.777Z,100576.02
2019-05-25T14:26:26.507Z,100582.87
2019-05-25T14:29:03.469Z,100591.61
2019-05-25T14:31:45.787Z,100597.50
2019-05-25T14:34:20.697Z,100590.05
2019-05-25T14:36:58.339Z,100590.91
2019-05-25T14:39:37.241Z,100590.98
2019-05-25T14:42:15.142Z,100598.62
2019-05-25T14:44:52.146Z,100610.53
2019-05-25T14:47:29.698Z,100623.77
2019-05-25T14:50:07.815Z,100621.61
2019-05-25T14:52:45.838Z,100626.00
2019-05-25T14:55:23.127Z,100628.62
2019-05-25T14:58:00.830Z,100633.09
2019-05-25T15:00:39.287Z,100645.27
2019-05-25T15:03:17.920Z,100647.70
2019-05-25T15:05:55.203Z,100650.27
2019-05-25T15:08:33.200Z,100651.05
2019-05-25T15:11:11.984Z,100649.05
2019-05-25T15:13:49.739Z,100650.06
2019-05-25T15:16:27.287Z,100652.30
2019-05-25T15:19:04.830Z,100659.20
2019-05-25T15:21:44.267Z,100658.08
2019-05-25T15:24:22.397Z,100644.13
2019-05-25T15:26:59.500Z,100638.52
2019-05-25T15:29:37.436Z,100631.61
2019-05-25T15:32:19.871Z,100629.52
2019-05-25T15:34:54.186Z,100631.08
2019-05-25T15:37:31.845Z,100627.22
2019-05-25T15:40:10.191Z,100625.98
2019-05-25T15:42:49.272Z,100621.97
2019-05-25T15:45:27.851Z,100615.12
2019-05-25T15:48:05.008Z,100626.83
2019-05-25T15:50:42.837Z,100619.94
2019-05-25T15:53:20.301Z,100619.94
2019-05-25T15:55:58.285Z,100631.41
2019-05-25T15:58:35.303Z,100636.08
2019-05-25T16:01:13.959Z,100643.36
2019-05-25T16:03:53.568Z,100650.48
2019-05-25T16:06:32.354Z,100649.63
2019-05-25T16:09:10.162Z,100648.95
2019-05-25T16:11:50.786Z,100653.23
2019-05-25T16:14:29.226Z,100640.61
2019-05-25T16:17:06.929Z,100633.98
2019-05-25T16:19:44.274Z,100630.22
2019-05-25T16:22:21.893Z,100629.70
2019-05-25T16:25:00.284Z,100628.05
2019-05-25T16:27:38.396Z,100630.07
2019-05-25T16:30:15.960Z,100624.02
2019-05-25T16:33:11.618Z,100632.69
2019-05-25T16:35:32.907Z,100622.92
2019-05-25T16:38:11.534Z,100616.78
2019-05-25T16:40:48.872Z,100615.36
2019-05-25T16:43:26.596Z,100612.70
2019-05-25T16:46:05.550Z,100609.66
2019-05-25T16:48:44.134Z,100611.95
2019-05-25T16:51:21.921Z,100614.80
2019-05-25T16:53:59.287Z,100616.14
2019-05-25T16:56:37.251Z,100603.36
2019-05-25T16:59:15.110Z,100592.41
2019-05-25T17:01:52.311Z,100586.19
2019-05-25T17:04:29.665Z,100598.56
2019-05-25T17:07:07.416Z,100591.07
2019-05-25T17:09:45.159Z,100589.16
2019-05-25T17:12:22.445Z,100577.48
2019-05-25T17:15:00.801Z,100566.05
2019-05-25T17:17:40.070Z,100561.51
2019-05-25T17:20:17.955Z,100558.16
2019-05-25T17:22:55.303Z,100559.23
2019-05-25T17:25:32.776Z,100555.24
2019-05-25T17:28:10.113Z,100552.05
2019-05-25T17:30:49.727Z,100553.34
2019-05-25T17:33:42.569Z,100552.42
2019-05-25T17:36:06.206Z,100538.61
2019-05-25T17:38:44.747Z,100540.86
2019-05-25T17:41:23.640Z,100539.84
2019-05-25T17:44:00.941Z,100550.96
2019-05-25T17:46:38.426Z,100543.66
2019-05-25T17:49:16.996Z,100546.09
2019-05-25T17:51:55.539Z,100539.27
2019-05-25T17:54:32.852Z,100531.16
2019-05-25T17:57:10.784Z,100540.06
2019-05-25T17:59:47.691Z,100544.02
2019-05-25T18:02:25.819Z,100534.95
2019-05-25T18:05:03.171Z,100531.20
2019-05-25T18:07:40.341Z,100527.84
2019-05-25T18:10:17.601Z,100526.30
2019-05-25T18:12:55.539Z,100520.78
2019-05-25T18:15:32.833Z,100517.99
2019-05-25T18:18:11.627Z,100520.91
2019-05-25T18:20:50.314Z,100520.19
2019-05-25T18:23:28.182Z,100521.59
2019-05-25T18:26:05.268Z,100519.92
2019-05-25T18:28:42.707Z,100504.16
2019-05-25T18:31:20.016Z,100498.87
2019-05-25T18:33:57.854Z,100500.09
2019-05-25T18:36:35.380Z,100497.91
2019-05-25T18:39:12.841Z,100485.36
2019-05-25T18:41:50.388Z,100486.77
2019-05-25T18:44:28.938Z,100483.53
2019-05-25T18:47:06.627Z,100462.54
2019-05-25T18:49:44.034Z,100477.24
2019-05-25T18:52:26.662Z,100474.48
2019-05-25T18:55:04.935Z,100478.32
2019-05-25T18:57:42.613Z,100473.77
2019-05-25T19:00:20.093Z,100473.67
2019-05-25T19:03:14.285Z,100463.86
2019-05-25T19:05:52.241Z,100464.30
2019-05-25T19:08:29.716Z,100474.63
2019-05-25T19:11:07.742Z,100477.20
2019-05-25T19:13:45.200Z,100478.59
2019-05-25T19:16:23.227Z,100475.75
2019-05-25T19:19:00.512Z,100475.75
2019-05-25T19:21:38.114Z,100475.97
2019-05-25T19:24:19.074Z,100470.71
2019-05-25T19:26:57.974Z,100466.70
2019-05-25T19:29:35.460Z,100467.87
2019-05-25T19:32:13.070Z,100468.60
2019-05-25T19:34:59.036Z,100468.80
2019-05-25T19:37:30.082Z,100463.17
2019-05-25T19:40:09.048Z,100465.62
2019-05-25T19:42:50.340Z,100463.39
2019-05-25T19:45:27.824Z,100457.66
2019-05-25T19:48:06.074Z,100459.47
2019-05-25T19:50:43.457Z,100467.77
2019-05-25T19:53:21.410Z,100460.87
2019-05-25T19:55:59.623Z,100463.02
2019-05-25T19:58:37.226Z,100464.08
2019-05-25T20:01:14.774Z,100463.39
2019-05-25T20:03:52.694Z,100460.22
2019-05-25T20:06:29.839Z,100463.02
2019-05-25T20:09:09.073Z,100460.39
2019-05-25T20:11:46.518Z,100467.42
2019-05-25T20:14:23.853Z,100463.33
2019-05-25T20:17:01.133Z,100463.38
2019-05-25T20:19:38.507Z,100461.55
2019-05-25T20:22:16.131Z,100470.96
2019-05-25T20:24:54.125Z,100479.09
2019-05-25T20:27:32.549Z,100452.46
2019-05-25T20:30:10.469Z,100482.76
2019-05-25T20:32:47.709Z,100477.48
2019-05-25T20:35:32.949Z,100478.58
2019-05-25T20:38:03.890Z,100479.55
2019-05-25T20:40:42.072Z,100483.79
2019-05-25T20:43:19.384Z,100486.08
2019-05-25T20:45:56.860Z,100491.27
2019-05-25T20:48:34.219Z,100494.07
2019-05-25T20:51:12.421Z,100491.59
2019-05-25T20:53:50.144Z,100481.93
2019-05-25T20:56:27.481Z,100486.91
2019-05-25T20:59:05.886Z,100493.53
2019-05-25T21:01:45.374Z,100491.82
2019-05-25T21:04:22.847Z,100493.15
2019-05-25T21:07:00.367Z,100497.02
2019-05-25T21:09:37.611Z,100494.75
2019-05-25T21:12:15.881Z,100493.89
2019-05-25T21:14:53.358Z,100504.29
2019-05-25T21:17:30.861Z,100500.55
2019-05-25T21:20:08.249Z,100504.11
2019-05-25T21:22:51.079Z,100503.41
2019-05-25T21:25:26.867Z,100507.13
2019-05-25T21:28:04.388Z,100497.30
2019-05-25T21:30:41.897Z,100496.87
2019-05-25T21:33:20.064Z,100495.97
2019-05-25T21:36:07.650Z,100491.46
2019-05-25T21:38:37.484Z,100488.81
2019-05-25T21:41:15.037Z,100490.91
2019-05-25T21:43:53.367Z,100484.70
2019-05-25T21:46:30.718Z,100489.09
2019-05-25T21:49:08.390Z,100494.06
2019-05-25T21:51:45.786Z,100488.85
2019-05-25T21:54:23.520Z,100489.42
2019-05-25T21:57:00.866Z,100484.50
2019-05-25T21:59:38.072Z,100492.99
2019-05-25T22:02:16.225Z,100500.28
2019-05-25T22:04:54.892Z,100500.31
2019-05-25T22:07:32.450Z,100505.24
2019-05-25T22:10:10.458Z,100508.94
2019-05-25T22:12:48.047Z,100513.74
2019-05-25T22:15:25.816Z,100516.53
2019-05-25T22:18:06.179Z,100514.12
2019-05-25T22:20:43.650Z,100509.55
2019-05-25T22:23:20.562Z,100511.42
2019-05-25T22:25:59.161Z,100507.72
2019-05-25T22:28:44.780Z,100511.72
2019-05-25T22:31:16.674Z,100515.56
2019-05-25T22:33:54.983Z,100515.78
2019-05-25T22:36:40.349Z,100517.49
2019-05-25T22:39:12.215Z,100518.34
2019-05-25T22:41:49.211Z,100519.53
2019-05-25T22:44:26.928Z,100520.88
2019-05-25T22:47:06.446Z,100520.27
2019-05-25T22:49:43.183Z,100527.23
2019-05-25T22:52:20.180Z,100526.61
2019-05-25T22:54:57.988Z,100534.09
2019-05-25T22:57:35.660Z,100534.19
2019-05-25T23:00:14.280Z,100537.62
2019-05-25T23:02:52.132Z,100532.43
2019-05-25T23:05:30.408Z,100541.15
2019-05-25T23:08:08.310Z,100546.58
2019-05-25T23:10:45.573Z,100547.91
2019-05-25T23:13:22.842Z,100547.83
2019-05-25T23:16:00.097Z,100549.07
2019-05-25T23:18:38.652Z,100550.54
2019-05-25T23:21:16.252Z,100552.74
2019-05-25T23:23:53.820Z,100549.17
2019-05-25T23:26:31.329Z,100555.42
2019-05-25T23:29:09.738Z,100559.02
2019-05-25T23:31:46.800Z,100567.80
2019-05-25T23:34:24.582Z,100579.95
2019-05-25T23:37:14.080Z,100580.73
2019-05-25T23:39:41.377Z,100584.61
2019-05-25T23:42:18.342Z,100591.03
2019-05-25T23:44:55.559Z,100596.94
2019-05-25T23:47:33.240Z,100595.27
2019-05-25T23:50:13.326Z,100598.09
2019-05-25T23:52:50.675Z,100594.93
2019-05-25T23:55:29.439Z,100599.66
2019-05-25T23:58:06.680Z,100603.79
